createdAt,value
2023-05-12T00:00:57.742Z,58.57
2023-05-12T00:03:24.899Z,59.05
2023-05-12T00:05:52.000Z,57.84
2023-05-12T00:08:18.851Z,57.56
2023-05-12T00:10:45.741Z,57.84
2023-05-12T00:13:12.674Z,58.86
2023-05-12T00:15:39.605Z,59.09
2023-05-12T00:18:06.663Z,59.97
2023-05-12T00:20:33.512Z,60.76
2023-05-12T00:23:00.504Z,59.67
2023-05-12T00:25:27.353Z,61.92
2023-05-12T00:27:54.296Z,62.11
2023-05-12T00:30:21.450Z,61.64
2023-05-12T00:32:48.646Z,62.15
2023-05-12T00:35:16.801Z,61.37
2023-05-12T00:37:45.122Z,61.85
2023-05-12T00:40:12.340Z,61.41
2023-05-12T00:42:39.147Z,61.75
2023-05-12T00:45:06.658Z,61.22
2023-05-12T00:47:34.537Z,61.93
2023-05-12T00:50:02.491Z,63.44
2023-05-12T00:52:29.501Z,64.52
2023-05-12T00:54:56.465Z,64.96
2023-05-12T00:57:25.972Z,64.71
2023-05-12T00:59:52.963Z,64.46
2023-05-12T01:02:20.212Z,62.76
2023-05-12T01:04:47.779Z,63.46
2023-05-12T01:07:26.352Z,64.85
2023-05-12T01:09:57.092Z,65.26
2023-05-12T01:12:26.846Z,63.81
2023-05-12T01:14:55.715Z,63.30
2023-05-12T01:17:29.824Z,63.20
2023-05-12T01:20:00.232Z,63.91
2023-05-12T01:22:31.410Z,64.11
2023-05-12T01:25:05.144Z,63.23
2023-05-12T01:27:33.984Z,63.98
2023-05-12T01:30:04.616Z,63.76
2023-05-12T01:32:35.758Z,66.05
2023-05-12T01:35:03.777Z,64.93
2023-05-12T01:37:32.686Z,66.51
2023-05-12T01:40:02.622Z,65.72
2023-05-12T01:42:29.803Z,65.15
2023-05-12T01:44:57.770Z,65.18
2023-05-12T01:47:27.250Z,66.03
2023-05-12T01:50:02.592Z,66.45
2023-05-12T01:52:29.433Z,66.99
2023-05-12T01:54:56.805Z,65.98
2023-05-12T01:57:24.897Z,65.06
2023-05-12T01:59:55.500Z,65.27
2023-05-12T02:02:23.132Z,66.44
2023-05-12T02:04:50.214Z,64.76
2023-05-12T02:07:17.147Z,65.96
2023-05-12T02:09:45.487Z,64.76
2023-05-12T02:12:12.662Z,65.38
2023-05-12T02:14:39.562Z,65.08
2023-05-12T02:17:06.495Z,66.76
2023-05-12T02:19:33.458Z,64.76
2023-05-12T02:22:00.472Z,65.60
2023-05-12T02:24:27.341Z,65.41
2023-05-12T02:26:54.201Z,65.97
2023-05-12T02:29:20.995Z,67.14
2023-05-12T02:31:49.052Z,66.18
2023-05-12T02:34:17.414Z,65.71
2023-05-12T02:36:44.278Z,67.59
2023-05-12T02:39:12.249Z,66.48
2023-05-12T02:41:39.428Z,66.72
2023-05-12T02:44:06.705Z,66.90
2023-05-12T02:46:33.623Z,66.81
2023-05-12T02:49:01.037Z,68.64
2023-05-12T02:51:27.962Z,67.18
2023-05-12T02:53:54.978Z,68.30
2023-05-12T02:56:22.585Z,67.37
2023-05-12T02:58:49.412Z,66.34
2023-05-12T03:01:16.252Z,67.62
2023-05-12T03:03:43.393Z,65.91
2023-05-12T03:06:10.775Z,67.05
2023-05-12T03:08:37.778Z,68.63
2023-05-12T03:11:04.730Z,67.43
2023-05-12T03:13:31.989Z,68.44
2023-05-12T03:16:01.671Z,68.28
2023-05-12T03:18:30.249Z,67.05
2023-05-12T03:20:57.297Z,67.36
2023-05-12T03:23:24.966Z,66.88
2023-05-12T03:25:51.876Z,66.47
2023-05-12T03:28:18.832Z,68.30
2023-05-12T03:30:45.725Z,66.74
2023-05-12T03:33:12.648Z,66.47
2023-05-12T03:35:39.549Z,67.03
2023-05-12T03:38:06.782Z,66.80
2023-05-12T03:40:33.744Z,66.83
2023-05-12T03:43:00.575Z,66.37
2023-05-12T03:45:27.463Z,66.25
2023-05-12T03:47:54.416Z,67.16
2023-05-12T03:50:21.587Z,65.70
2023-05-12T03:52:48.541Z,66.39
2023-05-12T03:55:15.485Z,67.26
2023-05-12T03:57:42.986Z,67.22
2023-05-12T04:00:11.687Z,66.64
2023-05-12T04:02:45.038Z,67.15
2023-05-12T04:05:13.933Z,65.67
2023-05-12T04:07:41.896Z,66.28
2023-05-12T04:10:09.101Z,65.12
2023-05-12T04:12:36.010Z,66.43
2023-05-12T04:15:03.754Z,65.98
2023-05-12T04:17:30.878Z,65.42
2023-05-12T04:19:57.865Z,65.36
2023-05-12T04:22:25.822Z,66.64
2023-05-12T04:24:53.546Z,65.22
2023-05-12T04:27:20.894Z,64.27
2023-05-12T04:29:47.919Z,63.35
2023-05-12T04:32:15.388Z,64.13
2023-05-12T04:34:42.264Z,64.54
2023-05-12T04:37:09.367Z,64.26
2023-05-12T04:39:36.745Z,65.01
2023-05-12T04:42:04.455Z,66.15
2023-05-12T04:44:34.960Z,65.69
2023-05-12T04:47:01.903Z,65.28
2023-05-12T04:49:30.514Z,65.96
2023-05-12T04:51:57.413Z,63.65
2023-05-12T04:54:24.604Z,62.60
2023-05-12T04:56:51.867Z,63.27
2023-05-12T04:59:18.842Z,63.41
2023-05-12T05:01:47.850Z,61.56
2023-05-12T05:04:14.811Z,62.08
2023-05-12T05:06:41.720Z,61.29
2023-05-12T05:09:09.018Z,61.19
2023-05-12T05:11:36.414Z,59.52
2023-05-12T05:14:03.204Z,60.70
2023-05-12T05:16:32.730Z,59.87
2023-05-12T05:18:59.769Z,59.95
2023-05-12T05:21:26.677Z,59.59
2023-05-12T05:23:53.586Z,59.07
2023-05-12T05:26:21.732Z,60.03
2023-05-12T05:28:48.631Z,59.53
2023-05-12T05:31:17.079Z,58.56
2023-05-12T05:33:44.532Z,59.69
2023-05-12T05:36:11.497Z,60.36
2023-05-12T05:38:38.717Z,60.81
2023-05-12T05:41:06.555Z,59.49
2023-05-12T05:43:36.579Z,59.17
2023-05-12T05:46:03.522Z,59.64
2023-05-12T05:48:30.318Z,59.10
2023-05-12T05:50:57.478Z,59.49
2023-05-12T05:53:25.517Z,58.36
2023-05-12T05:55:53.044Z,57.47
2023-05-12T05:58:20.206Z,58.16
2023-05-12T06:00:47.856Z,57.04
2023-05-12T06:03:14.907Z,55.86
2023-05-12T06:05:43.728Z,55.44
2023-05-12T06:08:13.534Z,57.19
2023-05-12T06:10:43.542Z,56.10
2023-05-12T06:13:10.776Z,55.24
2023-05-12T06:15:38.259Z,55.42
2023-05-12T06:18:05.277Z,54.41
2023-05-12T06:20:32.985Z,53.13
2023-05-12T06:22:59.864Z,52.85
2023-05-12T06:25:27.145Z,51.80
2023-05-12T06:27:53.967Z,51.07
2023-05-12T06:30:20.908Z,51.41
2023-05-12T06:32:47.850Z,51.29
2023-05-12T06:35:14.729Z,50.50
2023-05-12T06:37:41.626Z,49.96
2023-05-12T06:40:09.190Z,48.19
2023-05-12T06:42:36.024Z,50.23
2023-05-12T06:45:10.985Z,48.65
2023-05-12T06:47:38.109Z,49.96
2023-05-12T06:50:05.433Z,50.57
2023-05-12T06:52:32.286Z,50.52
2023-05-12T06:54:59.120Z,49.06
2023-05-12T06:57:26.273Z,50.33
2023-05-12T06:59:53.321Z,44.07
2023-05-12T07:02:20.230Z,42.66
2023-05-12T07:04:47.156Z,42.47
2023-05-12T07:07:14.006Z,43.42
2023-05-12T07:09:42.435Z,43.33
2023-05-12T07:12:09.388Z,44.01
2023-05-12T07:14:36.193Z,42.49
2023-05-12T07:17:03.033Z,42.58
2023-05-12T07:19:30.041Z,42.03
2023-05-12T07:21:56.959Z,41.95
2023-05-12T07:24:24.080Z,42.86
2023-05-12T07:26:51.074Z,40.99
2023-05-12T07:29:17.952Z,40.86
2023-05-12T07:31:45.073Z,43.12
2023-05-12T07:34:12.032Z,41.53
2023-05-12T07:36:39.025Z,43.21
2023-05-12T07:39:06.058Z,43.39
2023-05-12T07:41:34.613Z,43.64
2023-05-12T07:44:02.473Z,42.04
2023-05-12T07:46:29.379Z,44.04
2023-05-12T07:48:56.289Z,42.60
2023-05-12T07:51:23.294Z,42.54
2023-05-12T07:53:50.171Z,43.69
2023-05-12T07:56:16.947Z,43.70
2023-05-12T07:58:45.348Z,44.83
2023-05-12T08:01:13.507Z,44.03
2023-05-12T08:03:40.647Z,43.77
2023-05-12T08:06:07.571Z,43.22
2023-05-12T08:08:34.811Z,42.58
2023-05-12T08:11:01.710Z,43.89
2023-05-12T08:13:28.484Z,42.61
2023-05-12T08:15:55.566Z,42.33
2023-05-12T08:18:22.448Z,42.56
2023-05-12T08:20:50.368Z,42.50
2023-05-12T08:23:17.683Z,43.30
2023-05-12T08:25:44.706Z,42.46
2023-05-12T08:28:13.043Z,39.86
2023-05-12T08:30:40.509Z,41.99
2023-05-12T08:33:07.507Z,41.64
2023-05-12T08:35:36.145Z,40.84
2023-05-12T08:38:03.339Z,41.73
2023-05-12T08:40:33.627Z,39.60
2023-05-12T08:43:12.561Z,40.69
2023-05-12T08:45:40.534Z,40.46
2023-05-12T08:48:10.843Z,41.17
2023-05-12T08:50:39.028Z,39.97
2023-05-12T08:53:10.385Z,40.91
2023-05-12T08:55:38.376Z,41.92
2023-05-12T08:58:05.404Z,41.09
2023-05-12T09:00:34.959Z,40.84
2023-05-12T09:03:05.486Z,41.21
2023-05-12T09:05:33.133Z,39.97
2023-05-12T09:08:01.209Z,39.56
2023-05-12T09:13:04.436Z,39.45
2023-05-12T09:15:38.621Z,40.36
2023-05-12T09:18:05.788Z,39.25
2023-05-12T09:20:33.195Z,38.92
2023-05-12T09:23:14.872Z,39.15
2023-05-12T09:25:41.668Z,39.68
2023-05-12T09:28:09.034Z,39.06
2023-05-12T09:30:38.398Z,37.98
2023-05-12T09:33:09.969Z,37.86
2023-05-12T09:35:46.824Z,39.59
2023-05-12T09:38:14.869Z,40.16
2023-05-12T09:40:43.231Z,39.29
2023-05-12T09:43:12.566Z,39.25
2023-05-12T09:45:42.457Z,40.37
2023-05-12T09:48:13.909Z,41.63
2023-05-12T09:50:49.013Z,39.98
2023-05-12T09:53:17.993Z,38.98
2023-05-12T09:55:45.715Z,38.45
2023-05-12T09:58:15.628Z,38.15
2023-05-12T10:01:12.870Z,38.88
2023-05-12T10:03:33.558Z,39.68
2023-05-12T10:06:02.747Z,38.95
2023-05-12T10:08:51.389Z,38.76
2023-05-12T10:11:18.935Z,38.85
2023-05-12T10:13:46.699Z,37.85
2023-05-12T10:16:14.487Z,36.40
2023-05-12T10:18:44.523Z,37.20
2023-05-12T10:21:13.124Z,35.66
2023-05-12T10:23:44.418Z,36.42
2023-05-12T10:26:11.636Z,36.55
2023-05-12T10:28:38.566Z,35.78
2023-05-12T10:31:07.532Z,36.89
2023-05-12T10:33:35.068Z,39.06
2023-05-12T10:36:01.948Z,38.08
2023-05-12T10:38:36.479Z,36.89
2023-05-12T10:41:05.936Z,38.65
2023-05-12T10:43:45.346Z,37.18
2023-05-12T10:46:19.606Z,37.30
2023-05-12T10:49:07.860Z,36.50
2023-05-12T10:51:48.598Z,37.20
2023-05-12T10:54:25.136Z,37.21
2023-05-12T10:56:53.220Z,36.19
2023-05-12T10:59:22.781Z,36.99
2023-05-12T11:02:04.008Z,37.38
2023-05-12T11:04:41.766Z,36.92
2023-05-12T11:07:11.983Z,38.71
2023-05-12T11:09:53.089Z,38.93
2023-05-12T11:12:26.757Z,38.00
2023-05-12T11:14:53.944Z,37.47
2023-05-12T11:17:20.810Z,38.00
2023-05-12T11:19:50.307Z,37.08
2023-05-12T11:22:22.520Z,38.08
2023-05-12T11:24:50.694Z,37.54
2023-05-12T11:27:19.779Z,37.33
2023-05-12T11:29:57.024Z,36.56
2023-05-12T11:32:23.947Z,37.09
2023-05-12T11:34:50.768Z,38.47
2023-05-12T11:37:21.130Z,37.40
2023-05-12T11:39:48.573Z,36.98
2023-05-12T11:42:18.636Z,37.39
2023-05-12T11:44:50.416Z,37.23
2023-05-12T11:47:19.826Z,36.58
2023-05-12T11:49:55.919Z,36.76
2023-05-12T11:52:24.612Z,37.24
2023-05-12T11:55:00.915Z,36.42
2023-05-12T11:57:30.145Z,36.99
2023-05-12T12:00:05.677Z,36.56
2023-05-12T12:02:37.504Z,36.61
2023-05-12T12:05:07.778Z,35.57
2023-05-12T12:07:36.790Z,36.71
2023-05-12T12:10:17.033Z,36.33
2023-05-12T12:12:44.418Z,36.29
2023-05-12T12:15:11.752Z,36.53
2023-05-12T12:17:40.039Z,37.05
2023-05-12T12:20:08.464Z,35.53
2023-05-12T12:22:35.521Z,36.34
2023-05-12T12:25:03.570Z,36.81
2023-05-12T12:27:30.573Z,36.91
2023-05-12T12:29:57.473Z,36.78
2023-05-12T12:32:24.488Z,36.74
2023-05-12T12:34:51.983Z,36.57
2023-05-12T12:37:18.980Z,37.25
2023-05-12T12:39:47.855Z,36.22
2023-05-12T12:42:15.617Z,37.00
2023-05-12T12:44:42.988Z,36.69
2023-05-12T12:47:10.004Z,36.14
2023-05-12T12:49:37.049Z,36.46
2023-05-12T12:52:04.087Z,37.40
2023-05-12T12:54:30.986Z,36.61
2023-05-12T12:56:58.494Z,36.68
2023-05-12T12:59:25.437Z,36.45
2023-05-12T13:01:52.762Z,35.93
2023-05-12T13:04:23.009Z,35.22
2023-05-12T13:06:49.968Z,34.15
2023-05-12T13:09:19.698Z,34.80
2023-05-12T13:11:47.842Z,34.65
2023-05-12T13:14:14.795Z,35.58
2023-05-12T13:16:41.969Z,34.53
2023-05-12T13:19:09.120Z,34.74
2023-05-12T13:21:36.068Z,33.73
2023-05-12T13:24:02.930Z,33.71
2023-05-12T13:26:29.804Z,34.13
2023-05-12T13:28:56.785Z,34.05
2023-05-12T13:31:23.606Z,35.06
2023-05-12T13:33:50.740Z,33.58
2023-05-12T13:36:17.794Z,33.44
2023-05-12T13:38:46.701Z,34.49
2023-05-12T13:41:13.813Z,34.09
2023-05-12T13:43:40.619Z,33.19
2023-05-12T13:46:07.655Z,32.64
2023-05-12T13:48:34.486Z,32.95
2023-05-12T13:51:01.327Z,33.13
2023-05-12T13:53:28.148Z,33.46
2023-05-12T13:55:55.004Z,34.49
2023-05-12T13:58:21.803Z,32.82
2023-05-12T14:00:48.758Z,33.44
2023-05-12T14:03:15.617Z,32.80
2023-05-12T14:05:42.450Z,33.26
2023-05-12T14:08:09.274Z,32.63
2023-05-12T14:10:36.115Z,32.79
2023-05-12T14:13:02.980Z,33.59
2023-05-12T14:15:44.319Z,33.30
2023-05-12T14:18:15.239Z,33.28
2023-05-12T14:20:42.480Z,33.08
2023-05-12T14:23:09.440Z,32.89
2023-05-12T14:25:36.285Z,32.40
2023-05-12T14:28:03.745Z,33.00
2023-05-12T14:30:30.991Z,32.99
2023-05-12T14:32:57.997Z,33.67
2023-05-12T14:35:27.912Z,32.84
2023-05-12T14:37:55.690Z,33.20
2023-05-12T14:40:23.511Z,32.98
2023-05-12T14:42:50.471Z,33.63
2023-05-12T14:45:17.772Z,32.95
2023-05-12T14:47:44.903Z,33.32
2023-05-12T14:50:12.077Z,33.61
2023-05-12T14:52:39.045Z,33.36
2023-05-12T14:55:12.350Z,34.55
2023-05-12T14:57:40.548Z,33.78
2023-05-12T15:00:10.897Z,33.94
2023-05-12T15:02:39.039Z,33.94
2023-05-12T15:05:07.273Z,33.59
2023-05-12T15:07:34.373Z,33.44
2023-05-12T15:10:01.334Z,33.81
2023-05-12T15:12:28.355Z,34.93
2023-05-12T15:14:56.396Z,34.16
2023-05-12T15:17:23.598Z,34.75
2023-05-12T15:19:50.459Z,33.82
2023-05-12T15:22:17.335Z,33.68
2023-05-12T15:24:44.459Z,34.70
2023-05-12T15:27:11.302Z,34.51
2023-05-12T15:29:39.381Z,34.68
2023-05-12T15:32:06.875Z,33.81
2023-05-12T15:34:36.768Z,34.45
2023-05-12T15:37:03.744Z,35.59
2023-05-12T15:39:30.667Z,34.88
2023-05-12T15:41:57.595Z,34.79
2023-05-12T15:44:24.735Z,34.47
2023-05-12T15:46:51.575Z,34.65
2023-05-12T15:49:18.554Z,34.89
2023-05-12T15:51:45.389Z,34.85
2023-05-12T15:54:12.612Z,35.49
2023-05-12T15:56:39.600Z,34.83
2023-05-12T15:59:07.478Z,35.48
2023-05-12T16:01:34.368Z,35.39
2023-05-12T16:04:01.421Z,35.21
2023-05-12T16:06:28.403Z,35.85
2023-05-12T16:08:55.687Z,36.00
2023-05-12T16:11:22.533Z,36.55
2023-05-12T16:13:52.208Z,37.07
2023-05-12T16:16:19.770Z,37.74
2023-05-12T16:18:46.848Z,38.18
2023-05-12T16:21:13.908Z,38.37
2023-05-12T16:23:40.744Z,38.59
2023-05-12T16:26:07.680Z,39.54
2023-05-12T16:28:34.706Z,39.61
2023-05-12T16:31:02.759Z,39.87
2023-05-12T16:33:29.978Z,41.10
2023-05-12T16:35:57.550Z,40.38
2023-05-12T16:38:24.442Z,41.69
2023-05-12T16:40:51.388Z,41.67
2023-05-12T16:43:18.294Z,42.48
2023-05-12T16:45:45.291Z,41.94
2023-05-12T16:48:12.613Z,42.12
2023-05-12T16:50:39.573Z,42.42
2023-05-12T16:53:06.745Z,41.92
2023-05-12T16:55:33.593Z,42.07
2023-05-12T16:58:00.455Z,42.15
2023-05-12T17:00:27.264Z,42.46
2023-05-12T17:02:54.267Z,42.52
2023-05-12T17:05:21.784Z,43.13
2023-05-12T17:07:48.990Z,43.99
2023-05-12T17:10:16.134Z,43.75
2023-05-12T17:12:42.991Z,43.34
2023-05-12T17:15:11.486Z,43.88
2023-05-12T17:17:38.397Z,44.05
2023-05-12T17:20:06.157Z,44.21
2023-05-12T17:22:35.037Z,45.31
2023-05-12T17:25:01.839Z,44.16
2023-05-12T17:27:28.663Z,44.83
2023-05-12T17:29:56.817Z,44.82
2023-05-12T17:32:23.691Z,45.15
2023-05-12T17:34:51.337Z,44.90
2023-05-12T17:37:18.371Z,45.27
2023-05-12T17:39:46.260Z,45.10
2023-05-12T17:42:13.207Z,45.30
2023-05-12T17:44:40.010Z,45.10
2023-05-12T17:47:07.538Z,45.55
2023-05-12T17:49:34.404Z,45.78
2023-05-12T17:52:01.196Z,45.35
2023-05-12T17:54:28.134Z,46.41
2023-05-12T17:56:54.989Z,46.06
2023-05-12T17:59:22.035Z,46.77
2023-05-12T18:01:49.108Z,46.10
2023-05-12T18:04:16.025Z,46.30
2023-05-12T18:06:42.904Z,46.23
2023-05-12T18:09:10.086Z,45.87
2023-05-12T18:11:37.164Z,46.06
2023-05-12T18:14:06.054Z,46.55
2023-05-12T18:16:33.569Z,45.91
2023-05-12T18:19:00.742Z,46.12
2023-05-12T18:21:27.721Z,46.52
2023-05-12T18:23:54.626Z,46.66
2023-05-12T18:26:21.934Z,46.92
2023-05-12T18:28:48.756Z,47.05
2023-05-12T18:31:16.722Z,47.43
2023-05-12T18:33:47.702Z,48.01
2023-05-12T18:36:15.266Z,47.71
2023-05-12T18:38:42.579Z,47.42
2023-05-12T18:41:09.983Z,47.23
2023-05-12T18:43:37.122Z,47.15
2023-05-12T18:46:04.499Z,48.11
2023-05-12T18:48:31.595Z,48.36
2023-05-12T18:50:58.645Z,48.30
2023-05-12T18:53:25.588Z,48.47
2023-05-12T18:55:52.406Z,49.13
2023-05-12T18:58:19.359Z,48.75
2023-05-12T19:00:46.207Z,48.24
2023-05-12T19:03:13.127Z,48.52
2023-05-12T19:05:44.959Z,49.09
2023-05-12T19:08:13.020Z,49.99
2023-05-12T19:10:40.339Z,49.31
2023-05-12T19:13:07.400Z,49.77
2023-05-12T19:15:34.395Z,50.26
2023-05-12T19:18:01.226Z,49.70
2023-05-12T19:20:29.091Z,50.40
2023-05-12T19:22:56.161Z,50.17
2023-05-12T19:27:49.916Z,50.55
2023-05-12T19:30:16.914Z,50.02
2023-05-12T19:32:46.160Z,50.60
2023-05-12T19:35:16.756Z,50.78
2023-05-12T19:37:43.969Z,51.13
2023-05-12T19:40:11.252Z,50.44
2023-05-12T19:42:38.161Z,50.77
2023-05-12T19:45:05.661Z,50.77
2023-05-12T19:47:33.561Z,50.35
2023-05-12T19:50:01.035Z,51.39
2023-05-12T19:52:30.799Z,50.85
2023-05-12T19:54:57.958Z,51.15
2023-05-12T19:57:24.775Z,51.73
2023-05-12T19:59:51.969Z,51.60
2023-05-12T20:02:18.866Z,52.09
2023-05-12T20:04:45.794Z,52.46
2023-05-12T20:07:12.738Z,52.04
2023-05-12T20:09:39.574Z,52.12
2023-05-12T20:12:08.090Z,52.39
2023-05-12T20:14:36.249Z,53.10
2023-05-12T20:17:05.851Z,52.49
2023-05-12T20:19:33.370Z,51.70
2023-05-12T20:22:00.331Z,53.79
2023-05-12T20:24:27.726Z,52.72
2023-05-12T20:26:54.675Z,53.20
2023-05-12T20:29:22.370Z,52.41
2023-05-12T20:31:51.067Z,52.78
2023-05-12T20:34:19.541Z,53.82
2023-05-12T20:36:46.997Z,53.30
2023-05-12T20:39:15.229Z,53.57
2023-05-12T20:41:43.557Z,53.38
2023-05-12T20:44:10.982Z,53.46
2023-05-12T20:46:38.838Z,53.88
2023-05-12T20:49:06.149Z,54.19
2023-05-12T20:51:33.484Z,54.09
2023-05-12T20:54:00.520Z,54.52
2023-05-12T20:56:27.418Z,54.34
2023-05-12T20:58:54.308Z,54.53
2023-05-12T21:01:21.262Z,55.77
2023-05-12T21:03:48.597Z,54.99
2023-05-12T21:06:15.533Z,54.69
2023-05-12T21:08:42.417Z,54.81
2023-05-12T21:11:16.763Z,55.09
2023-05-12T21:13:50.116Z,54.30
2023-05-12T21:16:17.243Z,54.36
2023-05-12T21:18:44.388Z,54.77
2023-05-12T21:21:11.424Z,54.95
2023-05-12T21:23:38.279Z,54.77
2023-05-12T21:26:06.016Z,54.74
2023-05-12T21:28:32.870Z,55.44
2023-05-12T21:30:59.748Z,54.54
2023-05-12T21:33:26.616Z,54.87
2023-05-12T21:35:53.759Z,55.97
2023-05-12T21:38:21.014Z,55.34
2023-05-12T21:40:56.419Z,54.46
2023-05-12T21:43:23.304Z,54.63
2023-05-12T21:45:50.454Z,55.07
2023-05-12T21:48:17.867Z,55.90
2023-05-12T21:50:44.703Z,55.72
2023-05-12T21:53:11.744Z,56.30
2023-05-12T21:55:40.707Z,57.22
2023-05-12T21:58:07.550Z,56.93
2023-05-12T22:00:34.417Z,57.02
2023-05-12T22:03:01.290Z,57.07
2023-05-12T22:05:28.246Z,57.45
2023-05-12T22:07:55.575Z,56.61
2023-05-12T22:10:22.564Z,57.38
2023-05-12T22:12:49.569Z,58.21
2023-05-12T22:15:16.393Z,58.42
2023-05-12T22:17:43.430Z,58.44
2023-05-12T22:20:11.079Z,58.69
2023-05-12T22:22:38.410Z,59.24
2023-05-12T22:25:05.717Z,59.09
2023-05-12T22:27:32.511Z,59.46
2023-05-12T22:29:59.278Z,58.40
2023-05-12T22:32:26.185Z,58.22
2023-05-12T22:34:53.974Z,58.01
2023-05-12T22:37:21.055Z,58.88
2023-05-12T22:39:48.275Z,59.85
2023-05-12T22:42:15.067Z,59.80
2023-05-12T22:44:41.914Z,59.19
2023-05-12T22:47:08.935Z,59.62
2023-05-12T22:49:36.060Z,60.56
2023-05-12T22:52:02.865Z,60.62
2023-05-12T22:54:29.643Z,62.08
2023-05-12T22:56:56.558Z,61.17
2023-05-12T22:59:23.375Z,60.54
2023-05-12T23:01:50.249Z,60.46
2023-05-12T23:04:17.236Z,60.37
2023-05-12T23:06:44.281Z,61.38
2023-05-12T23:09:11.143Z,60.65
2023-05-12T23:11:37.990Z,61.02
2023-05-12T23:14:05.092Z,61.55
2023-05-12T23:16:32.123Z,60.77
2023-05-12T23:18:59.133Z,61.22
2023-05-12T23:21:25.941Z,60.78
2023-05-12T23:23:52.851Z,61.27
2023-05-12T23:26:19.650Z,62.30
2023-05-12T23:28:46.482Z,62.30
2023-05-12T23:31:13.348Z,62.07
2023-05-12T23:33:40.260Z,61.94
2023-05-12T23:36:07.595Z,62.21
2023-05-12T23:38:34.902Z,62.07
2023-05-12T23:41:01.811Z,61.93
2023-05-12T23:43:28.625Z,60.61
2023-05-12T23:45:55.754Z,60.70
2023-05-12T23:48:22.546Z,61.72
2023-05-12T23:50:49.757Z,60.98
2023-05-12T23:53:16.613Z,61.36
2023-05-12T23:55:43.401Z,61.36
2023-05-12T23:58:11.379Z,61.53
